Catàleg de serveis del Meteocat
Campanya meteocatpedra

Dades de l'estació automàtica PN del Garraf - el Rascler

?
?
Resum diari 22:00 TU
Dades diàries de l'estació meteorològica
Temperatura mitjana 10.7 °C
Temperatura màxima 14.5 °C 12:28 TU
Temperatura mínima 8.3 °C 5:03 TU
Humitat relativa mitjana 80%
Precipitació acumulada 0.1 mm
Ratxa màxima del vent (2 m) 60.5 km/h - 66º 16:33 TU
Irradiació solar global 12.5 MJ/m2

El tram horari està expressat en Temps Universal (TU). Cal sumar una hora en horari d'hivern i dues en horari d'estiu per passar a l'hora oficial.

PN del Garraf - el Rascler

Metadades estació meteorol´gica
Municipi Begues
Comarca Baix Llobregat
Altitud 573 m
Data alta 29.02.1996
Estat actual Operativa
Dades de període
Període
TU
TM
°C
TX
°C
TN
°C
HRM
%
PPT
mm
VVM (2 m)
km/h
DVM (2 m)
graus
VVX (2 m)
km/h
RS
W/m2
00:00 - 00:30 9.4 9.5 9.4 99 0.0 13.7 69 29.2 0
00:30 - 01:00 9.3 9.4 9.3 99 0.0 13.0 70 28.8 0
01:00 - 01:30 9.3 9.4 9.2 99 0.0 8.6 69 23.0 0
01:30 - 02:00 9.2 9.3 9.1 99 0.0 7.6 71 20.5 0
02:00 - 02:30 9.2 9.3 9.0 99 0.0 8.6 70 20.2 0
02:30 - 03:00 9.0 9.1 8.9 99 0.0 13.0 68 24.8 0
03:00 - 03:30 8.8 8.9 8.7 99 0.0 16.9 65 30.6 0
03:30 - 04:00 8.7 8.8 8.7 99 0.0 16.9 64 31.7 0
04:00 - 04:30 8.7 8.8 8.5 99 0.0 18.4 61 33.8 0
04:30 - 05:00 8.4 8.5 8.3 99 0.0 19.8 64 36.0 0
05:00 - 05:30 8.4 8.4 8.3 98 0.0 19.1 65 36.0 4
05:30 - 06:00 8.5 8.5 8.4 95 0.0 19.4 67 34.2 24
06:00 - 06:30 8.7 8.9 8.5 92 0.0 15.1 68 29.9 63
06:30 - 07:00 9.0 9.2 8.9 90 0.0 11.5 68 24.5 100
07:00 - 07:30 9.4 9.6 9.2 90 0.0 8.3 67 25.9 138
07:30 - 08:00 9.6 9.7 9.5 91 0.0 14.4 71 28.4 136
08:00 - 08:30 9.6 9.9 9.5 83 0.1 18.7 68 37.8 111
08:30 - 09:00 10.4 10.8 10.0 75 0.0 12.6 64 27.7 263
09:00 - 09:30 10.5 10.7 10.4 69 0.0 14.8 70 27.4 172
09:30 - 10:00 10.8 11.2 10.6 64 0.0 16.6 67 32.8 235
10:00 - 10:30 11.5 12.1 11.2 58 0.0 15.5 71 33.8 349
10:30 - 11:00 12.4 12.6 12.1 54 0.0 15.5 71 34.9 452
11:00 - 11:30 12.4 12.8 12.1 58 0.0 11.2 63 36.7 348
11:30 - 12:00 13.2 13.7 12.7 60 0.0 9.0 65 32.0 524
12:00 - 12:30 13.7 14.5 13.3 63 0.0 11.9 68 40.0 622
12:30 - 13:00 13.8 14.2 13.4 64 0.0 23.4 72 49.0 814
13:00 - 13:30 13.8 14.4 13.3 64 0.0 22.7 71 52.9 653
13:30 - 14:00 13.6 14.0 13.3 68 0.0 8.3 38 32.4 355
14:00 - 14:30 13.0 13.9 12.5 74 0.0 8.6 55 21.6 324
14:30 - 15:00 12.4 12.7 12.2 73 0.0 9.4 45 31.3 241
15:00 - 15:30 12.3 12.6 12.0 71 0.0 15.8 72 38.2 218
15:30 - 16:00 11.8 12.2 11.6 72 0.0 24.5 73 52.2 273
16:00 - 16:30 12.2 12.3 12.0 68 0.0 15.5 71 38.2 198
16:30 - 17:00 12.0 12.1 11.9 69 0.0 19.8 74 60.5 154
17:00 - 17:30 11.8 11.9 11.6 70 0.0 20.9 74 44.3 105
17:30 - 18:00 11.4 11.6 11.4 73 0.0 20.5 73 40.7 57
18:00 - 18:30 11.2 11.4 11.1 75 0.0 11.2 67 30.2 9
18:30 - 19:00 10.9 11.0 10.8 81 0.0 15.5 72 37.4 0
19:00 - 19:30 10.7 10.8 10.7 81 0.0 14.4 71 38.5 0
19:30 - 20:00 10.6 10.7 10.6 81 0.0 14.0 72 45.4 0
20:00 - 20:30 10.6 10.7 10.6 75 0.0 14.4 73 49.0 0
20:30 - 21:00 10.6 10.6 10.5 75 0.0 14.8 72 35.6 0
21:00 - 21:30 10.5 10.6 10.5 78 0.0 11.5 70 33.1 0
21:30 - 22:00 10.7 10.9 10.6 77 0.0 12.6 70 31.7 0
22:00 - 22:30 10.9 11.0 10.8 73 0.0 15.1 72 31.0 0

Les dades en taronja només han passat un control de qualitat automàtic. Resta pendent la seva validació definitiva.